createdAt,value
2019-04-28T00:00:02.688Z,10.12
2019-04-28T00:01:02.663Z,10.16
2019-04-28T00:02:02.622Z,10.16
2019-04-28T00:03:02.591Z,10.19
2019-04-28T00:04:03.392Z,10.23
2019-04-28T00:05:02.551Z,10.15
2019-04-28T00:06:02.502Z,10.10
2019-04-28T00:07:02.442Z,10.04
2019-04-28T00:08:02.416Z,10.13
2019-04-28T00:09:02.384Z,10.05
2019-04-28T00:10:02.354Z,10.10
2019-04-28T00:11:02.317Z,10.12
2019-04-28T00:12:02.284Z,10.12
2019-04-28T00:13:02.245Z,10.12
2019-04-28T00:14:02.224Z,10.12
2019-04-28T00:15:02.520Z,10.09
2019-04-28T00:16:02.137Z,10.09
2019-04-28T00:17:02.104Z,10.07
2019-04-28T00:18:04.176Z,10.16
2019-04-28T00:19:02.040Z,10.01
2019-04-28T00:20:02.009Z,10.05
2019-04-28T00:21:01.974Z,10.07
2019-04-28T00:22:01.940Z,10.12
2019-04-28T00:23:03.837Z,10.07
2019-04-28T00:24:01.869Z,10.10
2019-04-28T00:25:01.844Z,10.01
2019-04-28T00:26:01.808Z,10.09
2019-04-28T00:27:01.952Z,10.05
2019-04-28T00:28:01.738Z,9.95
2019-04-28T00:29:01.693Z,10.05
2019-04-28T00:30:02.172Z,10.02
2019-04-28T00:31:02.443Z,10.09
2019-04-28T00:32:01.586Z,10.09
2019-04-28T00:33:01.827Z,10.07
2019-04-28T00:34:01.548Z,10.09
2019-04-28T00:35:02.372Z,10.13
2019-04-28T00:36:01.595Z,10.10
2019-04-28T00:37:01.456Z,10.07
2019-04-28T00:38:01.522Z,10.09
2019-04-28T00:39:01.673Z,10.13
2019-04-28T00:40:01.322Z,10.05
2019-04-28T00:41:02.401Z,10.12
2019-04-28T00:42:03.027Z,10.04
2019-04-28T00:43:01.215Z,10.05
2019-04-28T00:44:01.933Z,10.10
2019-04-28T00:45:01.874Z,10.16
2019-04-28T00:46:01.104Z,10.07
2019-04-28T00:47:01.283Z,10.09
2019-04-28T00:48:01.124Z,10.12
2019-04-28T00:49:02.099Z,10.02
2019-04-28T00:50:02.109Z,10.12
2019-04-28T00:51:01.813Z,10.10
2019-04-28T00:52:03.033Z,10.12
2019-04-28T00:53:01.739Z,10.15
2019-04-28T00:54:00.923Z,10.13
2019-04-28T00:55:01.254Z,10.07
2019-04-28T00:56:02.140Z,10.23
2019-04-28T00:57:01.463Z,10.13
2019-04-28T00:58:00.983Z,10.09
2019-04-28T00:59:01.629Z,10.05
2019-04-28T01:00:02.397Z,10.10
2019-04-28T01:01:01.425Z,10.04
2019-04-28T01:02:01.206Z,9.98
2019-04-28T01:03:02.168Z,10.12
2019-04-28T01:04:02.086Z,10.04
2019-04-28T01:05:01.645Z,9.94
2019-04-28T01:06:01.891Z,10.02
2019-04-28T01:07:01.644Z,10.10
2019-04-28T01:08:01.099Z,10.01
2019-04-28T01:09:01.399Z,10.09
2019-04-28T01:10:01.411Z,10.01
2019-04-28T01:11:01.812Z,10.04
2019-04-28T01:12:01.794Z,10.12
2019-04-28T01:13:01.960Z,9.91
2019-04-28T01:14:01.732Z,9.97
2019-04-28T01:15:02.638Z,9.98
2019-04-28T01:16:00.068Z,9.94
2019-04-28T01:17:00.051Z,9.99
2019-04-28T01:18:00.723Z,9.94
2019-04-28T01:19:00.145Z,9.91
2019-04-28T01:19:59.933Z,9.98
2019-04-28T01:20:59.912Z,9.94
2019-04-28T01:22:00.385Z,9.98
2019-04-28T01:23:00.437Z,9.97
2019-04-28T01:23:59.876Z,9.95
2019-04-28T01:24:59.761Z,9.95
2019-04-28T01:26:00.097Z,9.92
2019-04-28T01:27:00.468Z,9.89
2019-04-28T01:28:00.181Z,9.87
2019-04-28T01:28:59.718Z,9.89
2019-04-28T01:30:07.947Z,9.94
2019-04-28T01:30:59.957Z,9.94
2019-04-28T01:32:00.391Z,9.97
2019-04-28T01:32:59.686Z,9.95
2019-04-28T01:33:59.895Z,10.01
2019-04-28T01:34:59.894Z,9.92
2019-04-28T01:36:00.485Z,9.94
2019-04-28T01:36:59.804Z,9.94
2019-04-28T01:38:00.146Z,9.97
2019-04-28T01:38:59.994Z,9.87
2019-04-28T01:39:59.732Z,9.83
2019-04-28T01:40:59.762Z,9.84
2019-04-28T01:41:59.615Z,9.91
2019-04-28T01:42:59.798Z,9.94
2019-04-28T01:44:00.154Z,9.86
2019-04-28T01:45:00.639Z,9.91
2019-04-28T01:46:00.169Z,9.92
2019-04-28T01:46:59.503Z,9.98
2019-04-28T01:48:00.499Z,9.84
2019-04-28T01:48:59.883Z,9.86
2019-04-28T01:50:00.213Z,9.87
2019-04-28T01:50:59.821Z,9.87
2019-04-28T01:52:00.773Z,9.80
2019-04-28T01:52:59.786Z,9.94
2019-04-28T01:54:00.178Z,9.94
2019-04-28T01:55:00.435Z,9.94
2019-04-28T01:55:59.524Z,9.97
2019-04-28T01:57:01.159Z,9.92
2019-04-28T01:57:59.640Z,10.02
2019-04-28T01:59:00.180Z,9.86
2019-04-28T01:59:59.763Z,9.87
2019-04-28T02:00:59.578Z,9.82
2019-04-28T02:02:00.090Z,9.86
2019-04-28T02:03:00.405Z,9.82
2019-04-28T02:04:00.250Z,9.91
2019-04-28T02:04:59.973Z,9.94
2019-04-28T02:06:00.005Z,9.95
2019-04-28T02:06:59.837Z,9.87
2019-04-28T02:08:00.218Z,9.95
2019-04-28T02:08:58.239Z,10.01
2019-04-28T02:09:58.195Z,9.94
2019-04-28T02:11:00.010Z,9.94
2019-04-28T02:11:58.136Z,9.92
2019-04-28T02:12:59.816Z,9.97
2019-04-28T02:13:59.719Z,9.97
2019-04-28T02:14:58.039Z,9.94
2019-04-28T02:15:59.873Z,9.91
2019-04-28T02:16:57.955Z,9.89
2019-04-28T02:18:00.006Z,9.74
2019-04-28T02:18:59.589Z,9.79
2019-04-28T02:19:57.845Z,9.74
2019-04-28T02:20:59.569Z,9.76
2019-04-28T02:21:59.442Z,9.74
2019-04-28T02:22:57.756Z,9.59
2019-04-28T02:23:59.557Z,9.61
2019-04-28T02:24:57.680Z,9.69
2019-04-28T02:25:59.642Z,9.66
2019-04-28T02:26:57.618Z,9.77
2019-04-28T02:27:59.499Z,9.76
2019-04-28T02:28:57.544Z,9.83
2019-04-28T02:29:57.500Z,9.77
2019-04-28T02:30:57.473Z,9.65
2019-04-28T02:31:57.448Z,9.65
2019-04-28T02:32:57.403Z,9.64
2019-04-28T02:33:57.365Z,9.72
2019-04-28T02:34:57.335Z,9.79
2019-04-28T02:35:57.315Z,9.82
2019-04-28T02:36:57.269Z,9.64
2019-04-28T02:37:57.235Z,9.72
2019-04-28T02:38:57.207Z,9.79
2019-04-28T02:39:57.161Z,9.66
2019-04-28T02:40:57.128Z,9.76
2019-04-28T02:41:57.097Z,9.68
2019-04-28T02:42:57.065Z,9.72
2019-04-28T02:43:57.031Z,9.58
2019-04-28T02:44:56.992Z,9.61
2019-04-28T02:45:56.962Z,9.61
2019-04-28T02:46:56.925Z,9.65
2019-04-28T02:47:56.888Z,9.56
2019-04-28T02:48:56.852Z,9.68
2019-04-28T02:49:56.820Z,9.59
2019-04-28T02:50:56.778Z,9.69
2019-04-28T02:51:56.752Z,9.66
2019-04-28T02:52:56.717Z,9.56
2019-04-28T02:53:56.676Z,9.59
2019-04-28T02:54:56.644Z,9.61
2019-04-28T02:55:56.608Z,9.61
2019-04-28T02:56:56.572Z,9.65
2019-04-28T02:57:56.538Z,9.65
2019-04-28T02:58:56.537Z,9.66
2019-04-28T02:59:56.468Z,9.72
2019-04-28T03:01:06.299Z,9.72
2019-04-28T03:01:56.392Z,9.72
2019-04-28T03:02:56.370Z,9.62
2019-04-28T03:03:56.328Z,9.65
2019-04-28T03:04:56.299Z,9.64
2019-04-28T03:05:56.267Z,9.58
2019-04-28T03:06:56.227Z,9.59
2019-04-28T03:07:56.189Z,9.48
2019-04-28T03:08:56.162Z,9.58
2019-04-28T03:09:56.124Z,9.61
2019-04-28T03:10:56.105Z,9.58
2019-04-28T03:11:56.070Z,9.59
2019-04-28T03:12:56.018Z,9.62
2019-04-28T03:13:55.983Z,9.56
2019-04-28T03:14:55.944Z,9.58
2019-04-28T03:15:55.920Z,9.59
2019-04-28T03:16:55.880Z,9.62
2019-04-28T03:17:55.844Z,9.58
2019-04-28T03:18:55.809Z,9.59
2019-04-28T03:19:55.774Z,9.61
2019-04-28T03:20:55.750Z,9.43
2019-04-28T03:21:55.704Z,9.55
2019-04-28T03:22:55.667Z,9.58
2019-04-28T03:23:55.637Z,9.54
2019-04-28T03:24:55.598Z,9.58
2019-04-28T03:25:55.562Z,9.55
2019-04-28T03:26:55.530Z,9.55
2019-04-28T03:27:55.507Z,9.46
2019-04-28T03:28:55.468Z,9.44
2019-04-28T03:29:55.422Z,9.44
2019-04-28T03:30:55.398Z,9.47
2019-04-28T03:32:16.462Z,9.46
2019-04-28T03:33:05.835Z,9.46
2019-04-28T03:33:56.232Z,9.46
2019-04-28T03:34:55.255Z,9.44
2019-04-28T03:35:55.217Z,9.43
2019-04-28T03:36:55.189Z,9.41
2019-04-28T03:37:55.160Z,9.47
2019-04-28T03:38:55.115Z,9.44
2019-04-28T03:39:55.074Z,9.47
2019-04-28T03:40:55.054Z,9.44
2019-04-28T03:41:55.008Z,9.29
2019-04-28T03:42:59.143Z,9.32
2019-04-28T03:43:54.945Z,9.36
2019-04-28T03:44:54.908Z,9.34
2019-04-28T03:45:54.870Z,9.34
2019-04-28T03:46:54.834Z,9.31
2019-04-28T03:47:54.800Z,9.29
2019-04-28T03:48:54.764Z,9.26
2019-04-28T03:49:54.731Z,9.41
2019-04-28T03:50:54.695Z,9.47
2019-04-28T03:51:54.671Z,9.46
2019-04-28T03:52:54.617Z,9.34
2019-04-28T03:53:54.591Z,9.37
2019-04-28T03:54:54.555Z,9.29
2019-04-28T03:55:54.521Z,9.40
2019-04-28T03:56:54.488Z,9.43
2019-04-28T03:57:54.454Z,9.40
2019-04-28T03:58:54.420Z,9.34
2019-04-28T03:59:54.386Z,9.43
2019-04-28T04:00:54.351Z,9.46
2019-04-28T04:01:59.376Z,9.37
2019-04-28T04:02:54.277Z,9.40
2019-04-28T04:03:54.237Z,9.26
2019-04-28T04:04:54.215Z,9.29
2019-04-28T04:05:54.173Z,9.31
2019-04-28T04:06:54.130Z,9.39
2019-04-28T04:07:54.097Z,9.32
2019-04-28T04:08:54.075Z,9.29
2019-04-28T04:09:54.037Z,9.36
2019-04-28T04:10:53.997Z,9.28
2019-04-28T04:11:53.963Z,9.34
2019-04-28T04:12:53.937Z,9.29
2019-04-28T04:13:53.905Z,9.37
2019-04-28T04:14:53.858Z,9.31
2019-04-28T04:15:54.724Z,9.26
2019-04-28T04:16:53.800Z,9.32
2019-04-28T04:17:53.753Z,9.13
2019-04-28T04:18:54.125Z,9.16
2019-04-28T04:19:53.696Z,9.28
2019-04-28T04:20:53.644Z,9.31
2019-04-28T04:21:53.617Z,9.32
2019-04-28T04:22:53.576Z,9.31
2019-04-28T04:23:53.547Z,9.29
2019-04-28T04:24:53.515Z,9.26
2019-04-28T04:25:53.475Z,9.34
2019-04-28T04:26:53.449Z,9.32
2019-04-28T04:27:53.397Z,9.29
2019-04-28T04:28:53.373Z,9.29
2019-04-28T04:29:53.329Z,9.37
2019-04-28T04:30:53.298Z,9.23
2019-04-28T04:32:09.341Z,9.10
2019-04-28T04:32:53.219Z,9.23
2019-04-28T04:33:53.198Z,9.28
2019-04-28T04:34:53.168Z,9.26
2019-04-28T04:35:53.124Z,9.37
2019-04-28T04:36:53.086Z,9.26
2019-04-28T04:37:53.052Z,9.26
2019-04-28T04:38:53.021Z,9.28
2019-04-28T04:39:52.978Z,9.34
2019-04-28T04:40:52.945Z,9.39
2019-04-28T04:41:52.903Z,9.31
2019-04-28T04:42:52.889Z,9.29
2019-04-28T04:43:52.845Z,9.26
2019-04-28T04:44:52.810Z,9.32
2019-04-28T04:45:52.772Z,9.25
2019-04-28T04:46:52.739Z,9.36
2019-04-28T04:47:52.705Z,9.29
2019-04-28T04:48:52.675Z,9.41
2019-04-28T04:49:52.635Z,9.32
2019-04-28T04:50:52.608Z,9.26
2019-04-28T04:51:52.579Z,9.34
2019-04-28T04:52:52.534Z,9.19
2019-04-28T04:53:52.504Z,9.29
2019-04-28T04:54:52.454Z,9.34
2019-04-28T04:55:52.746Z,9.41
2019-04-28T04:56:52.383Z,9.41
2019-04-28T04:57:52.358Z,9.40
2019-04-28T04:58:52.318Z,9.43
2019-04-28T04:59:52.290Z,9.43
2019-04-28T05:00:52.244Z,9.47
2019-04-28T05:01:52.224Z,9.54
2019-04-28T05:02:55.271Z,9.54
2019-04-28T05:03:52.139Z,9.48
2019-04-28T05:04:52.114Z,9.44
2019-04-28T05:05:52.074Z,9.44
2019-04-28T05:06:52.039Z,9.58
2019-04-28T05:07:52.011Z,9.55
2019-04-28T05:08:51.964Z,9.43
2019-04-28T05:09:51.941Z,9.55
2019-04-28T05:10:51.908Z,9.59
2019-04-28T05:11:51.861Z,9.54
2019-04-28T05:12:51.949Z,9.58
2019-04-28T05:13:51.790Z,9.66
2019-04-28T05:14:51.757Z,9.72
2019-04-28T05:15:52.652Z,9.69
2019-04-28T05:16:51.698Z,9.66
2019-04-28T05:17:51.655Z,9.65
2019-04-28T05:18:51.619Z,9.61
2019-04-28T05:19:51.592Z,9.64
2019-04-28T05:20:51.561Z,9.68
2019-04-28T05:21:51.517Z,9.72
2019-04-28T05:22:51.486Z,9.64
2019-04-28T05:23:51.456Z,9.66
2019-04-28T05:24:54.377Z,9.72
2019-04-28T05:25:51.378Z,9.66
2019-04-28T05:26:51.554Z,9.77
2019-04-28T05:27:54.509Z,9.82
2019-04-28T05:28:53.328Z,9.89
2019-04-28T05:29:51.386Z,9.98
2019-04-28T05:30:51.202Z,9.95
2019-04-28T05:31:54.857Z,9.94
2019-04-28T05:32:56.204Z,9.92
2019-04-28T05:33:51.098Z,9.99
2019-04-28T05:34:52.920Z,10.05
2019-04-28T05:35:54.530Z,10.10
2019-04-28T05:36:51.009Z,10.05
2019-04-28T05:37:50.961Z,10.13
2019-04-28T05:38:50.931Z,10.20
2019-04-28T05:39:52.527Z,10.23
2019-04-28T05:40:50.871Z,10.20
2019-04-28T05:41:50.821Z,10.17
2019-04-28T05:42:50.792Z,10.23
2019-04-28T05:43:50.754Z,10.20
2019-04-28T05:44:50.728Z,10.20
2019-04-28T05:45:50.687Z,10.28
2019-04-28T05:46:50.896Z,10.30
2019-04-28T05:47:52.003Z,10.30
2019-04-28T05:48:51.268Z,10.22
2019-04-28T05:49:51.458Z,10.23
2019-04-28T05:50:50.518Z,10.25
2019-04-28T05:51:50.536Z,10.23
2019-04-28T05:52:50.450Z,10.34
2019-04-28T05:53:53.607Z,10.34
2019-04-28T05:54:50.379Z,10.40
2019-04-28T05:55:50.337Z,10.34
2019-04-28T05:56:50.310Z,10.40
2019-04-28T05:57:52.988Z,10.34
2019-04-28T05:58:50.523Z,10.30
2019-04-28T05:59:50.661Z,10.34
2019-04-28T06:00:50.169Z,10.30
2019-04-28T06:01:50.657Z,10.30
2019-04-28T06:02:56.557Z,10.23
2019-04-28T06:03:50.078Z,10.23
2019-04-28T06:04:50.038Z,10.25
2019-04-28T06:05:49.993Z,10.31
2019-04-28T06:06:49.959Z,10.41
2019-04-28T06:07:49.924Z,10.41
2019-04-28T06:08:51.021Z,10.49
2019-04-28T06:09:50.139Z,10.56
2019-04-28T06:10:49.932Z,10.42
2019-04-28T06:11:49.793Z,10.44
2019-04-28T06:12:49.753Z,10.41
2019-04-28T06:13:50.087Z,10.49
2019-04-28T06:14:50.222Z,10.46
2019-04-28T06:15:49.784Z,10.44
2019-04-28T06:16:50.666Z,10.68
2019-04-28T06:17:49.872Z,10.68
2019-04-28T06:18:50.062Z,10.68
2019-04-28T06:19:50.439Z,10.79
2019-04-28T06:20:49.826Z,10.79
2019-04-28T06:21:49.455Z,10.76
2019-04-28T06:22:49.418Z,10.87
2019-04-28T06:23:49.388Z,10.81
2019-04-28T06:24:49.350Z,10.84
2019-04-28T06:25:49.315Z,10.90
2019-04-28T06:26:49.283Z,10.86
2019-04-28T06:27:49.248Z,10.96
2019-04-28T06:28:49.207Z,11.04
2019-04-28T06:29:49.177Z,11.10
2019-04-28T06:30:49.140Z,10.92
2019-04-28T06:31:49.112Z,10.96
2019-04-28T06:32:49.081Z,10.92
2019-04-28T06:33:49.041Z,10.81
2019-04-28T06:34:49.006Z,10.89
2019-04-28T06:35:48.968Z,10.92
2019-04-28T06:36:48.939Z,10.96
2019-04-28T06:37:48.906Z,11.05
2019-04-28T06:38:48.876Z,11.02
2019-04-28T06:39:48.841Z,11.11
2019-04-28T06:40:48.804Z,10.96
2019-04-28T06:41:48.768Z,11.05
2019-04-28T06:42:48.745Z,10.99
2019-04-28T06:43:48.710Z,10.90
2019-04-28T06:44:48.682Z,10.81
2019-04-28T06:45:48.640Z,10.59
2019-04-28T06:46:48.600Z,10.74
2019-04-28T06:47:48.647Z,10.78
2019-04-28T06:48:48.566Z,10.81
2019-04-28T06:49:48.494Z,10.86
2019-04-28T06:50:48.461Z,10.92
2019-04-28T06:51:48.436Z,10.93
2019-04-28T06:52:48.401Z,10.87
2019-04-28T06:53:48.366Z,10.89
2019-04-28T06:54:48.341Z,10.99
2019-04-28T06:55:48.308Z,11.02
2019-04-28T06:56:48.266Z,10.99
2019-04-28T06:57:48.243Z,10.87
2019-04-28T06:58:58.414Z,10.86
2019-04-28T06:59:48.155Z,10.97
2019-04-28T07:00:48.130Z,10.97
2019-04-28T07:01:48.082Z,10.92
2019-04-28T07:02:48.057Z,10.96
2019-04-28T07:03:48.036Z,11.02
2019-04-28T07:04:48.002Z,11.12
2019-04-28T07:05:47.958Z,11.11
2019-04-28T07:06:47.938Z,11.12
2019-04-28T07:07:47.897Z,11.22
2019-04-28T07:08:47.856Z,11.23
2019-04-28T07:09:47.824Z,11.23
2019-04-28T07:10:47.797Z,11.12
2019-04-28T07:11:47.757Z,11.19
2019-04-28T07:12:47.722Z,11.15
2019-04-28T07:13:47.687Z,11.37
2019-04-28T07:14:47.648Z,11.30
2019-04-28T07:15:47.623Z,11.37
2019-04-28T07:16:47.583Z,11.30
2019-04-28T07:17:47.552Z,11.23
2019-04-28T07:18:47.526Z,11.48
2019-04-28T07:19:47.515Z,11.47
2019-04-28T07:20:47.447Z,11.45
2019-04-28T07:21:47.421Z,11.37
2019-04-28T07:22:47.387Z,11.55
2019-04-28T07:23:47.349Z,11.51
2019-04-28T07:24:47.318Z,11.63
2019-04-28T07:25:47.288Z,11.66
2019-04-28T07:26:47.248Z,11.59
2019-04-28T07:27:47.219Z,11.47
2019-04-28T07:28:47.181Z,11.35
2019-04-28T07:29:47.152Z,11.19
2019-04-28T07:30:47.117Z,11.33
2019-04-28T07:31:47.083Z,11.19
2019-04-28T07:32:47.059Z,11.36
2019-04-28T07:33:47.023Z,11.40
2019-04-28T07:34:46.990Z,11.43
2019-04-28T07:35:46.949Z,11.15
2019-04-28T07:36:46.919Z,11.14
2019-04-28T07:37:46.878Z,11.00
2019-04-28T07:38:46.849Z,11.10
2019-04-28T07:39:46.819Z,11.15
2019-04-28T07:40:46.780Z,11.19
2019-04-28T07:41:46.745Z,11.11
2019-04-28T07:42:46.712Z,11.22
2019-04-28T07:43:46.692Z,11.22
2019-04-28T07:44:46.650Z,11.30
2019-04-28T07:45:46.620Z,11.26
2019-04-28T07:46:46.584Z,11.41
2019-04-28T07:47:46.561Z,11.44
2019-04-28T07:48:46.540Z,11.37
2019-04-28T07:49:46.488Z,11.37
2019-04-28T07:50:46.446Z,11.33
2019-04-28T07:51:46.413Z,11.44
2019-04-28T07:52:46.413Z,11.35
2019-04-28T07:53:46.343Z,11.23
2019-04-28T07:54:46.309Z,11.32
2019-04-28T07:55:46.286Z,11.40
2019-04-28T07:56:46.253Z,11.62
2019-04-28T07:57:46.211Z,11.69
2019-04-28T07:58:46.181Z,11.63
2019-04-28T07:59:46.149Z,11.60
2019-04-28T08:00:48.697Z,11.66
2019-04-28T08:01:46.076Z,11.70
2019-04-28T08:02:46.041Z,11.66
2019-04-28T08:03:49.855Z,11.62
2019-04-28T08:04:45.984Z,11.68
2019-04-28T08:05:45.949Z,11.70
2019-04-28T08:06:45.935Z,11.66
2019-04-28T08:07:45.884Z,11.86
2019-04-28T08:08:45.895Z,11.88
2019-04-28T08:09:45.814Z,11.88
2019-04-28T08:10:45.796Z,11.75
2019-04-28T08:11:45.745Z,11.80
2019-04-28T08:12:45.731Z,11.77
2019-04-28T08:13:45.681Z,11.84
2019-04-28T08:14:45.645Z,11.95
2019-04-28T08:15:45.620Z,11.72
2019-04-28T08:16:45.580Z,11.80
2019-04-28T08:17:45.554Z,11.73
2019-04-28T08:18:45.516Z,11.72
2019-04-28T08:19:45.475Z,11.62
2019-04-28T08:20:45.449Z,11.60
2019-04-28T08:21:45.410Z,11.69
2019-04-28T08:22:45.384Z,11.66
2019-04-28T08:23:47.483Z,11.59
2019-04-28T08:24:45.325Z,11.70
2019-04-28T08:25:45.281Z,11.51
2019-04-28T08:26:45.253Z,11.55
2019-04-28T08:27:45.216Z,11.65
2019-04-28T08:28:45.195Z,11.65
2019-04-28T08:29:57.784Z,11.48
2019-04-28T08:30:45.117Z,11.43
2019-04-28T08:31:45.086Z,11.44
2019-04-28T08:32:45.055Z,11.47
2019-04-28T08:33:45.020Z,11.40
2019-04-28T08:34:44.985Z,11.47
2019-04-28T08:35:44.951Z,11.51
2019-04-28T08:36:44.921Z,11.62
2019-04-28T08:37:44.891Z,11.55
2019-04-28T08:38:44.864Z,11.54
2019-04-28T08:39:44.821Z,11.43
2019-04-28T08:40:44.777Z,11.41
2019-04-28T08:41:44.750Z,11.37
2019-04-28T08:42:44.726Z,11.30
2019-04-28T08:43:44.681Z,11.29
2019-04-28T08:44:44.650Z,11.19
2019-04-28T08:45:44.664Z,11.22
2019-04-28T08:46:44.582Z,11.12
2019-04-28T08:47:44.563Z,11.14
2019-04-28T08:48:44.513Z,11.25
2019-04-28T08:49:44.483Z,11.26
2019-04-28T08:50:44.451Z,11.43
2019-04-28T08:51:44.422Z,11.41
2019-04-28T08:52:44.387Z,11.43
2019-04-28T08:53:44.353Z,11.43
2019-04-28T08:54:44.319Z,11.47
2019-04-28T08:55:44.278Z,11.26
2019-04-28T08:56:44.242Z,11.18
2019-04-28T08:57:44.219Z,11.26
2019-04-28T08:58:44.182Z,11.43
2019-04-28T08:59:44.152Z,11.44
2019-04-28T09:00:44.119Z,11.59
2019-04-28T09:01:44.113Z,11.73
2019-04-28T09:02:44.044Z,11.75
2019-04-28T09:03:44.010Z,11.77
2019-04-28T09:04:43.984Z,11.80
2019-04-28T09:05:43.949Z,11.75
2019-04-28T09:06:43.914Z,11.91
2019-04-28T09:07:43.875Z,11.94
2019-04-28T09:08:43.849Z,11.88
2019-04-28T09:09:43.813Z,11.94
2019-04-28T09:10:43.779Z,12.03
2019-04-28T09:11:43.758Z,11.83
2019-04-28T09:12:43.712Z,11.86
2019-04-28T09:13:44.177Z,12.00
2019-04-28T09:14:43.652Z,12.10
2019-04-28T09:15:43.610Z,11.99
2019-04-28T09:16:43.575Z,11.80
2019-04-28T09:17:43.550Z,11.77
2019-04-28T09:18:43.506Z,11.70
2019-04-28T09:19:43.483Z,11.65
2019-04-28T09:20:43.455Z,11.70
2019-04-28T09:21:43.419Z,11.68
2019-04-28T09:22:43.381Z,11.73
2019-04-28T09:23:43.349Z,11.66
2019-04-28T09:24:43.311Z,11.75
2019-04-28T09:25:43.289Z,11.62
2019-04-28T09:26:43.246Z,11.68
2019-04-28T09:27:43.213Z,11.81
2019-04-28T09:28:43.192Z,11.88
2019-04-28T09:29:43.149Z,11.91
2019-04-28T09:30:43.113Z,12.06
2019-04-28T09:31:43.085Z,12.07
2019-04-28T09:32:43.050Z,12.17
2019-04-28T09:33:43.016Z,12.06
2019-04-28T09:34:42.993Z,11.91
2019-04-28T09:35:42.950Z,11.87
2019-04-28T09:36:42.920Z,11.84
2019-04-28T09:37:42.884Z,11.87
2019-04-28T09:38:42.856Z,11.86
2019-04-28T09:39:42.828Z,11.80
2019-04-28T09:40:42.785Z,11.81
2019-04-28T09:41:42.756Z,11.99
2019-04-28T09:42:42.723Z,11.90
2019-04-28T09:43:42.691Z,12.06
2019-04-28T09:44:42.665Z,12.00
2019-04-28T09:45:42.620Z,12.07
2019-04-28T09:46:42.601Z,12.10
2019-04-28T09:47:42.552Z,11.73
2019-04-28T09:48:42.527Z,11.65
2019-04-28T09:49:42.486Z,11.52
2019-04-28T09:50:42.458Z,11.55
2019-04-28T09:51:42.424Z,11.54
2019-04-28T09:52:42.402Z,11.55
2019-04-28T09:53:42.351Z,11.62
2019-04-28T09:54:42.337Z,11.43
2019-04-28T09:55:42.285Z,11.66
2019-04-28T09:56:42.252Z,11.54
2019-04-28T09:57:42.221Z,11.65
2019-04-28T09:58:42.185Z,11.54
2019-04-28T09:59:42.156Z,11.43
2019-04-28T10:00:42.136Z,11.55
2019-04-28T10:01:42.086Z,11.70
2019-04-28T10:02:42.058Z,11.83
2019-04-28T10:03:42.028Z,11.84
2019-04-28T10:04:42.368Z,12.02
2019-04-28T10:05:41.953Z,12.22
2019-04-28T10:06:41.932Z,12.28
2019-04-28T10:07:41.899Z,12.36
2019-04-28T10:08:41.866Z,12.62
2019-04-28T10:09:41.834Z,12.64
2019-04-28T10:10:41.802Z,12.68
2019-04-28T10:11:41.762Z,12.91
2019-04-28T10:12:41.732Z,13.11
2019-04-28T10:13:41.704Z,13.08
2019-04-28T10:14:41.671Z,13.16
2019-04-28T10:15:41.632Z,13.25
2019-04-28T10:16:41.609Z,13.30
2019-04-28T10:17:41.578Z,13.56
2019-04-28T10:18:41.538Z,13.57
2019-04-28T10:19:41.504Z,13.63
2019-04-28T10:20:41.473Z,13.47
2019-04-28T10:21:41.447Z,13.63
2019-04-28T10:22:41.411Z,13.70
2019-04-28T10:23:41.378Z,13.81
2019-04-28T10:24:41.347Z,13.81
2019-04-28T10:25:41.313Z,13.93
2019-04-28T10:26:41.283Z,13.93
2019-04-28T10:27:41.254Z,13.92
2019-04-28T10:28:41.223Z,13.90
2019-04-28T10:29:41.184Z,13.87
2019-04-28T10:30:41.174Z,14.03
2019-04-28T10:31:41.128Z,13.93
2019-04-28T10:32:41.094Z,14.12
2019-04-28T10:33:41.067Z,14.30
2019-04-28T10:34:54.060Z,14.43
2019-04-28T10:35:41.014Z,14.40
2019-04-28T10:36:40.969Z,14.47
2019-04-28T10:37:40.928Z,14.47
2019-04-28T10:38:40.904Z,14.50
2019-04-28T10:39:40.874Z,14.55
2019-04-28T10:40:40.848Z,14.66
2019-04-28T10:41:40.807Z,14.68
2019-04-28T10:42:40.783Z,14.62
2019-04-28T10:43:40.763Z,14.58
2019-04-28T10:44:40.718Z,14.54
2019-04-28T10:45:40.690Z,14.26
2019-04-28T10:46:40.671Z,14.12
2019-04-28T10:47:40.628Z,14.00
2019-04-28T10:48:40.605Z,14.05
2019-04-28T10:49:40.563Z,14.04
2019-04-28T10:50:40.529Z,14.15
2019-04-28T10:51:40.501Z,14.17
2019-04-28T10:52:40.470Z,14.18
2019-04-28T10:53:40.445Z,14.03
2019-04-28T10:54:40.410Z,14.03
2019-04-28T10:55:40.375Z,14.03
2019-04-28T10:56:40.351Z,14.04
2019-04-28T10:57:40.301Z,13.92
2019-04-28T10:58:40.284Z,13.78
2019-04-28T10:59:40.255Z,13.65
2019-04-28T11:00:40.216Z,13.42
2019-04-28T11:01:40.183Z,13.53
2019-04-28T11:02:40.156Z,13.56
2019-04-28T11:03:40.132Z,13.35
2019-04-28T11:04:40.092Z,13.19
2019-04-28T11:05:40.065Z,13.20
2019-04-28T11:06:40.028Z,12.91
2019-04-28T11:07:40.044Z,12.87
2019-04-28T11:08:39.977Z,12.62
2019-04-28T11:09:39.929Z,12.76
2019-04-28T11:10:39.910Z,12.80
2019-04-28T11:11:39.865Z,12.62
2019-04-28T11:12:39.846Z,12.64
2019-04-28T11:13:39.804Z,12.65
2019-04-28T11:14:39.774Z,12.78
2019-04-28T11:15:39.754Z,12.93
2019-04-28T11:16:39.716Z,12.82
2019-04-28T11:17:39.693Z,12.62
2019-04-28T11:18:39.659Z,12.72
2019-04-28T11:19:39.616Z,12.78
2019-04-28T11:20:39.587Z,12.79
2019-04-28T11:21:39.551Z,12.85
2019-04-28T11:22:39.523Z,12.93
2019-04-28T11:23:39.505Z,13.03
2019-04-28T11:24:40.116Z,12.95
2019-04-28T11:25:39.431Z,13.00
2019-04-28T11:26:39.397Z,12.93
2019-04-28T11:27:39.363Z,12.73
2019-04-28T11:28:39.337Z,12.58
2019-04-28T11:29:39.296Z,12.70
2019-04-28T11:30:39.256Z,12.64
2019-04-28T11:31:39.222Z,12.27
2019-04-28T11:32:39.206Z,12.12
2019-04-28T11:33:39.161Z,12.21
2019-04-28T11:34:39.135Z,12.36
2019-04-28T11:35:39.121Z,12.31
2019-04-28T11:36:39.063Z,12.42
2019-04-28T11:37:39.041Z,12.45
2019-04-28T11:38:39.007Z,12.36
2019-04-28T11:39:38.963Z,12.27
2019-04-28T11:40:38.932Z,12.29
2019-04-28T11:41:38.909Z,12.28
2019-04-28T11:42:38.869Z,12.22
2019-04-28T11:43:38.844Z,12.24
2019-04-28T11:44:38.801Z,12.28
2019-04-28T11:45:38.783Z,12.29
2019-04-28T11:46:38.738Z,12.39
2019-04-28T11:47:39.620Z,12.37
2019-04-28T11:48:39.191Z,12.54
2019-04-28T11:49:38.668Z,12.49
2019-04-28T11:50:38.666Z,12.24
2019-04-28T11:51:38.572Z,12.10
2019-04-28T11:52:38.553Z,11.91
2019-04-28T11:53:38.519Z,11.90
2019-04-28T11:54:38.482Z,12.00
2019-04-28T11:55:38.438Z,11.80
2019-04-28T11:56:41.530Z,11.91
2019-04-28T11:57:38.379Z,11.80
2019-04-28T11:58:38.360Z,11.90
2019-04-28T11:59:38.309Z,11.72
2019-04-28T12:00:38.280Z,11.60
2019-04-28T12:01:38.238Z,11.57
2019-04-28T12:02:38.209Z,11.69
2019-04-28T12:03:38.180Z,11.63
2019-04-28T12:04:38.177Z,11.51
2019-04-28T12:05:38.539Z,11.68
2019-04-28T12:06:38.110Z,11.69
2019-04-28T12:07:38.048Z,11.73
2019-04-28T12:08:38.635Z,11.77
2019-04-28T12:09:37.980Z,11.70
2019-04-28T12:10:37.953Z,11.59
2019-04-28T12:11:37.928Z,11.45
2019-04-28T12:12:37.893Z,11.50
2019-04-28T12:13:37.851Z,11.29
2019-04-28T12:14:37.826Z,11.33
2019-04-28T12:15:37.794Z,11.32
2019-04-28T12:16:37.808Z,11.30
2019-04-28T12:17:37.755Z,11.27
2019-04-28T12:18:37.689Z,11.14
2019-04-28T12:19:37.647Z,11.10
2019-04-28T12:20:37.625Z,10.81
2019-04-28T12:21:37.583Z,10.63
2019-04-28T12:22:37.558Z,10.69
2019-04-28T12:23:37.516Z,10.71
2019-04-28T12:24:37.488Z,10.79
2019-04-28T12:25:37.469Z,10.67
2019-04-28T12:26:37.419Z,10.60
2019-04-28T12:27:37.385Z,10.60
2019-04-28T12:28:37.353Z,10.59
2019-04-28T12:29:37.324Z,10.63
2019-04-28T12:30:37.294Z,10.64
2019-04-28T12:31:37.250Z,10.61
2019-04-28T12:32:37.216Z,10.57
2019-04-28T12:33:37.181Z,10.54
2019-04-28T12:34:37.147Z,10.49
2019-04-28T12:35:47.058Z,10.59
2019-04-28T12:36:37.084Z,10.63
2019-04-28T12:37:37.042Z,10.67
2019-04-28T12:38:37.010Z,10.57
2019-04-28T12:39:36.975Z,10.60
2019-04-28T12:40:36.952Z,10.44
2019-04-28T12:41:36.906Z,10.53
2019-04-28T12:42:36.881Z,10.56
2019-04-28T12:43:36.856Z,10.64
2019-04-28T12:44:36.803Z,10.71
2019-04-28T12:45:36.768Z,10.69
2019-04-28T12:46:36.742Z,10.79
2019-04-28T12:47:36.713Z,10.89
2019-04-28T12:48:36.678Z,11.00
2019-04-28T12:49:36.637Z,11.07
2019-04-28T12:50:36.610Z,11.23
2019-04-28T12:51:36.575Z,11.19
2019-04-28T12:52:36.542Z,11.27
2019-04-28T12:53:36.512Z,11.41
2019-04-28T12:54:36.464Z,11.72
2019-04-28T12:55:36.440Z,11.94
2019-04-28T12:56:36.411Z,12.18
2019-04-28T12:57:36.362Z,12.28
2019-04-28T12:58:36.340Z,12.53
2019-04-28T12:59:36.311Z,12.60
2019-04-28T13:00:36.294Z,12.24